Time;durP1;ratioP1;P1;durP2;ratioP2;P2;SDS_P1;SDS_P2;PMS_P1;PMS_P2;Temp;Humidity;BMP_temperature;BMP_pressure;BME280_temperature;BME280_humidity;BME280_pressure;Samples;Min_cycle;Max_cycle;Signal;HPM_P1;HPM_P2
2023/05/01 00:01:36;;;;;;;5.47;2.90;;;;;;;23.23;39.96;99932.97;4359615;32;34102;-68
2023/05/01 00:04:04;;;;;;;5.80;2.40;;;;;;;23.25;39.95;99928.12;4360686;32;34645;-67
2023/05/01 00:06:32;;;;;;;4.50;2.40;;;;;;;23.23;39.95;99925.66;4361473;32;33773;-67
2023/05/01 00:09:00;;;;;;;4.78;2.50;;;;;;;23.24;39.95;99930.03;4360554;32;35202;-70
2023/05/01 00:11:28;;;;;;;5.55;2.37;;;;;;;23.25;39.95;99928.12;4334898;32;34813;-62
2023/05/01 00:13:55;;;;;;;6.87;2.25;;;;;;;23.26;39.95;99932.53;4359686;32;34350;-64
2023/05/01 00:16:23;;;;;;;6.37;2.62;;;;;;;23.24;39.99;99926.47;4361078;32;33235;-65
2023/05/01 00:18:51;;;;;;;7.47;2.75;;;;;;;23.24;40.04;99923.75;4360239;32;33622;-62
2023/05/01 00:21:20;;;;;;;15.32;2.95;;;;;;;23.24;40.05;99924.59;4360520;32;34092;-70
2023/05/01 00:23:47;;;;;;;5.00;2.08;;;;;;;23.23;40.04;99928.38;4359105;32;34395;-70
2023/05/01 00:26:15;;;;;;;4.45;2.35;;;;;;;23.22;40.07;99926.69;4361142;32;33380;-70
2023/05/01 00:28:44;;;;;;;5.10;2.58;;;;;;;23.23;40.07;99927.53;4360271;32;34731;-68
2023/05/01 00:31:12;;;;;;;8.27;2.58;;;;;;;23.24;39.96;99924.59;4360433;32;34785;-63
2023/05/01 00:33:39;;;;;;;4.93;2.33;;;;;;;23.22;39.93;99920.41;4359636;32;34872;-67
2023/05/01 00:36:08;;;;;;;7.35;2.53;;;;;;;23.22;39.95;99917.69;4360847;32;32804;-70
2023/05/01 00:38:35;;;;;;;10.95;2.30;;;;;;;23.22;39.90;99920.41;4359843;32;34567;-66
2023/05/01 00:41:03;;;;;;;4.55;1.85;;;;;;;23.21;39.87;99924.19;4355131;32;33618;-63
2023/05/01 00:43:31;;;;;;;6.78;2.37;;;;;;;23.22;39.86;99920.41;4360662;32;34349;-68
2023/05/01 00:45:58;;;;;;;5.43;2.30;;;;;;;23.20;39.89;99917.91;4361084;32;33509;-71
2023/05/01 00:48:26;;;;;;;6.72;2.20;;;;;;;23.21;40.04;99924.19;4360404;32;34878;-68
2023/05/01 00:50:54;;;;;;;5.22;2.15;;;;;;;23.20;40.02;99917.09;4358621;32;34157;-62
2023/05/01 00:53:23;;;;;;;8.45;2.25;;;;;;;23.20;40.06;99919.81;4333589;32;34864;-61
2023/05/01 00:55:51;;;;;;;6.03;2.45;;;;;;;23.21;40.00;99922.28;4358726;32;33805;-65
2023/05/01 00:58:18;;;;;;;5.85;2.67;;;;;;;23.20;39.91;99920.62;4347176;32;34201;-63
2023/05/01 01:00:46;;;;;;;4.82;2.40;;;;;;;23.20;39.92;99922.53;4359453;32;34926;-65
2023/05/01 01:03:14;;;;;;;4.03;2.15;;;;;;;23.20;39.91;99925.25;4346703;32;34287;-66
2023/05/01 01:05:43;;;;;;;5.10;2.35;;;;;;;23.20;39.87;99927.97;4359404;32;34543;-68
2023/05/01 01:08:20;;;;;;;4.37;2.20;;;;;;;23.20;39.86;99927.97;4334816;32;33918;-67
2023/05/01 01:10:57;;;;;;;4.62;2.20;;;;;;;23.21;39.85;99929.62;4347551;32;34066;-70
2023/05/01 01:13:34;;;;;;;5.35;2.30;;;;;;;23.18;39.85;99925.47;4323962;33;33492;-63
2023/05/01 01:16:17;;;;;;;6.28;2.05;;;;;;;23.18;39.88;99930.94;4348975;32;34676;-63
2023/05/01 01:19:07;;;;;;;4.95;2.05;;;;;;;23.17;39.88;99923.78;4361970;32;34568;-62
2023/05/01 01:21:40;;;;;;;5.75;2.30;;;;;;;23.19;39.88;99920.88;4335521;32;33939;-63
2023/05/01 01:24:29;;;;;;;5.07;2.35;;;;;;;23.16;39.89;99919.41;4324318;32;34957;-61
2023/05/01 01:27:19;;;;;;;4.43;2.08;;;;;;;23.15;39.92;99921.31;4362531;32;33724;-66
2023/05/01 01:29:58;;;;;;;7.90;2.22;;;;;;;23.17;39.96;99916.47;4337293;32;33968;-63
2023/05/01 01:32:54;;;;;;;5.43;2.20;;;;;;;23.17;40.01;99915.63;4361797;32;33820;-70
2023/05/01 01:35:25;;;;;;;3.35;2.22;;;;;;;23.18;39.88;99909.16;4360639;32;34046;-64
2023/05/01 01:38:15;;;;;;;6.70;2.22;;;;;;;23.14;39.93;99907.91;4348165;32;34553;-65
2023/05/01 01:41:05;;;;;;;4.68;2.30;;;;;;;23.15;39.92;99912.31;4348434;32;33692;-65
2023/05/01 01:43:37;;;;;;;;;;;;;;;23.14;39.91;99908.75;4348528;32;34867;-67
2023/05/01 01:46:05;;;;;;;6.53;2.17;;;;;;;23.22;39.76;99912.25;4348378;32;34556;-67
2023/05/01 01:48:35;;;;;;;3.80;1.98;;;;;;;23.13;39.87;99906.25;4348993;32;33382;-71
2023/05/01 01:51:08;;;;;;;5.53;2.30;;;;;;;23.11;39.94;99903.75;4347208;32;32774;-70
2023/05/01 01:53:36;;;;;;;7.10;2.10;;;;;;;23.11;39.93;99909.19;4336527;32;33832;-70
2023/05/01 01:56:05;;;;;;;5.75;2.10;;;;;;;23.11;39.94;99909.19;4333269;33;34319;-69
2023/05/01 01:58:33;;;;;;;4.30;2.20;;;;;;;23.11;39.98;99914.63;4324041;32;33688;-67
2023/05/01 02:01:01;;;;;;;3.95;1.83;;;;;;;23.12;39.96;99916.28;4348354;32;33990;-62
2023/05/01 02:03:29;;;;;;;4.55;2.40;;;;;;;23.12;39.97;99919.00;4333530;33;34021;-65
2023/05/01 02:05:57;;;;;;;4.40;1.98;;;;;;;23.10;39.98;99910.25;4334187;33;34221;-68
2023/05/01 02:08:24;;;;;;;4.43;2.05;;;;;;;23.11;40.01;99914.63;4347074;32;33703;-69
2023/05/01 02:10:56;;;;;;;4.80;2.15;;;;;;;23.11;40.00;99908.34;4324386;33;34851;-70
2023/05/01 02:13:28;;;;;;;3.28;1.80;;;;;;;23.12;39.97;99908.13;4337518;32;33969;-70
2023/05/01 02:15:59;;;;;;;4.45;2.17;;;;;;;23.11;39.99;99903.75;4362513;32;34222;-70
2023/05/01 02:18:29;;;;;;;4.05;2.28;;;;;;;23.11;40.00;99914.63;4336354;32;34295;-66
2023/05/01 02:20:57;;;;;;;3.15;1.90;;;;;;;23.11;40.00;99909.19;4336497;32;33346;-71
2023/05/01 02:23:26;;;;;;;4.05;2.08;;;;;;;23.12;40.00;99907.28;4335746;32;34795;-70
2023/05/01 02:25:54;;;;;;;6.25;2.33;;;;;;;23.10;40.06;99909.41;4333202;33;34471;-68
2023/05/01 02:28:22;;;;;;;4.10;2.10;;;;;;;23.10;40.08;99906.69;4322007;33;34421;-70
2023/05/01 02:30:49;;;;;;;3.97;1.75;;;;;;;23.09;40.06;99905.03;4346360;32;33742;-63
2023/05/01 02:33:17;;;;;;;3.92;2.20;;;;;;;23.11;40.04;99908.34;4348325;32;33941;-69
2023/05/01 02:35:46;;;;;;;4.80;1.90;;;;;;;23.10;40.01;99907.53;4362355;32;34345;-67
2023/05/01 02:38:15;;;;;;;4.12;2.15;;;;;;;23.11;40.05;99906.47;4361310;32;33796;-62
2023/05/01 02:40:45;;;;;;;3.90;2.30;;;;;;;23.11;40.05;99909.19;4333422;32;33963;-62
2023/05/01 02:43:15;;;;;;;4.78;2.12;;;;;;;23.11;40.06;99911.91;4361492;32;34189;-63
2023/05/01 02:45:43;;;;;;;5.28;2.33;;;;;;;23.11;40.04;99911.06;4362040;32;34162;-65
2023/05/01 02:48:12;;;;;;;4.18;2.30;;;;;;;23.09;40.06;99911.31;4325120;33;34362;-66
2023/05/01 02:50:43;;;;;;;4.78;2.10;;;;;;;23.09;40.05;99914.03;4333370;32;33718;-69
2023/05/01 02:53:11;;;;;;;5.25;2.10;;;;;;;23.11;40.01;99911.06;4348308;32;34663;-63
2023/05/01 02:55:39;;;;;;;4.22;1.98;;;;;;;23.09;40.01;99913.19;4322192;33;35071;-63
2023/05/01 02:58:07;;;;;;;6.93;2.37;;;;;;;23.10;39.96;99912.13;4333850;33;33778;-63
2023/05/01 03:00:34;;;;;;;5.75;2.15;;;;;;;23.09;39.99;99921.38;4355125;32;33575;-60
2023/05/01 03:03:02;;;;;;;3.95;1.92;;;;;;;23.08;40.02;99917.81;4362003;32;34871;-63
2023/05/01 03:05:29;;;;;;;5.55;1.95;;;;;;;23.09;40.01;99921.38;4362021;32;34946;-63
2023/05/01 03:07:57;;;;;;;4.70;2.03;;;;;;;23.08;40.01;99928.69;4355013;32;33546;-67
2023/05/01 03:10:24;;;;;;;4.75;1.90;;;;;;;23.08;40.00;99917.81;4358042;32;34473;-65
2023/05/01 03:12:52;;;;;;;4.57;2.05;;;;;;;23.07;40.01;99929.72;4361784;32;34058;-68
2023/05/01 03:15:20;;;;;;;3.92;1.90;;;;;;;23.07;40.02;99927.00;4361859;32;33688;-63
2023/05/01 03:17:47;;;;;;;4.53;2.05;;;;;;;23.07;40.02;99929.72;4361957;32;32822;-67
2023/05/01 03:20:15;;;;;;;4.65;1.90;;;;;;;23.07;40.04;99921.56;4361819;32;34127;-64
2023/05/01 03:22:44;;;;;;;4.43;1.80;;;;;;;23.08;40.03;99927.84;4361936;32;33914;-68
2023/05/01 03:25:12;;;;;;;4.40;2.20;;;;;;;23.08;40.01;99925.13;4361764;32;33753;-68
2023/05/01 03:27:39;;;;;;;3.17;1.87;;;;;;;23.07;40.02;99932.44;4361901;32;33704;-61
2023/05/01 03:30:09;;;;;;;3.47;1.83;;;;;;;23.08;40.03;99927.84;4362059;32;33976;-68
2023/05/01 03:32:36;;;;;;;4.05;2.03;;;;;;;23.06;40.03;99930.78;4348653;32;34178;-65
2023/05/01 03:35:05;;;;;;;4.97;1.87;;;;;;;23.07;40.01;99935.16;4361124;32;34685;-67
2023/05/01 03:37:33;;;;;;;6.50;2.40;;;;;;;23.08;40.13;99927.84;4361971;32;32703;-67
2023/05/01 03:40:00;;;;;;;8.45;2.85;;;;;;;23.09;40.14;99930.38;4362062;32;33659;-63
2023/05/01 03:42:30;;;;;;;9.32;3.15;;;;;;;23.09;40.13;99929.53;4361848;32;32276;-64
2023/05/01 03:44:58;;;;;;;9.98;3.60;;;;;;;23.09;40.03;99934.97;4361914;32;35146;-68
2023/05/01 03:47:27;;;;;;;8.88;3.03;;;;;;;23.09;40.00;99929.53;4361694;32;34164;-62
2023/05/01 03:49:55;;;;;;;6.93;2.92;;;;;;;23.10;40.02;99937.47;4361339;32;34354;-69
2023/05/01 03:52:23;;;;;;;9.85;2.80;;;;;;;23.09;40.04;99929.53;4361812;32;34163;-62
2023/05/01 03:54:51;;;;;;;6.55;2.92;;;;;;;23.08;40.03;99934.16;4361950;32;34069;-65
2023/05/01 03:57:22;;;;;;;11.70;3.12;;;;;;;23.08;40.12;99936.88;4361268;32;33659;-68
2023/05/01 03:59:50;;;;;;;8.70;2.83;;;;;;;23.08;40.13;99936.88;4361571;32;33930;-63
2023/05/01 04:02:18;;;;;;;8.90;2.70;;;;;;;23.07;40.12;99929.72;4351265;32;34803;-69
2023/05/01 04:04:46;;;;;;;4.87;2.60;;;;;;;23.07;40.13;99928.91;4346554;33;35112;-67
2023/05/01 04:07:14;;;;;;;8.13;3.00;;;;;;;23.07;40.11;99928.91;4346948;33;34442;-65
2023/05/01 04:09:42;;;;;;;9.82;3.45;;;;;;;23.06;40.20;99933.50;4333589;33;34614;-61
2023/05/01 04:12:10;;;;;;;5.65;2.62;;;;;;;23.07;40.19;99931.63;4346919;33;34528;-63
2023/05/01 04:14:38;;;;;;;6.50;2.83;;;;;;;23.07;40.20;99931.63;4346508;33;34027;-63
2023/05/01 04:17:05;;;;;;;8.80;3.30;;;;;;;23.06;40.20;99936.25;4346673;33;33810;-68
2023/05/01 04:19:34;;;;;;;9.57;3.37;;;;;;;23.06;40.15;99933.50;4333492;33;34191;-68
2023/05/01 04:22:01;;;;;;;6.68;2.72;;;;;;;23.06;40.13;99927.25;4346775;33;33726;-69
2023/05/01 04:24:30;;;;;;;6.78;2.53;;;;;;;23.06;40.17;99932.69;4333317;33;33864;-68
2023/05/01 04:26:57;;;;;;;8.40;3.20;;;;;;;23.05;40.19;99929.12;4346501;33;33811;-66
2023/05/01 04:29:25;;;;;;;7.87;2.83;;;;;;;23.05;40.22;99934.56;4346353;33;33973;-67
2023/05/01 04:31:52;;;;;;;9.43;2.60;;;;;;;23.04;40.26;99934.81;4346397;33;34860;-65
2023/05/01 04:34:20;;;;;;;5.10;2.37;;;;;;;23.04;40.23;99937.53;4346513;33;34307;-68
2023/05/01 04:36:48;;;;;;;7.40;2.97;;;;;;;23.04;40.24;99941.06;4346138;33;33780;-69
2023/05/01 04:39:15;;;;;;;6.93;2.78;;;;;;;23.03;40.21;99939.37;4346267;33;34916;-68
2023/05/01 04:41:43;;;;;;;7.12;2.80;;;;;;;23.04;40.18;99946.53;4346432;33;34716;-69
2023/05/01 04:44:11;;;;;;;5.95;2.37;;;;;;;23.04;40.18;99946.53;4346058;33;35019;-65
2023/05/01 04:46:38;;;;;;;6.32;2.40;;;;;;;23.05;40.23;99941.91;4358379;32;34392;-67
2023/05/01 04:49:06;;;;;;;5.62;2.33;;;;;;;23.03;40.26;99942.09;4362638;32;33707;-64
2023/05/01 04:51:34;;;;;;;7.37;2.60;;;;;;;23.05;40.23;99950.06;4362866;32;34043;-66
2023/05/01 04:54:03;;;;;;;6.15;2.80;;;;;;;23.06;40.20;99951.72;4362921;32;34320;-67
2023/05/01 04:56:33;;;;;;;8.27;3.00;;;;;;;23.05;40.19;99947.34;4363103;32;34328;-63
2023/05/01 04:59:01;;;;;;;6.72;2.80;;;;;;;23.05;40.26;99950.91;4363054;32;33841;-68
2023/05/01 05:01:29;;;;;;;6.75;2.30;;;;;;;23.02;40.29;99951.34;4357103;32;33820;-69
2023/05/01 05:03:57;;;;;;;8.95;2.45;;;;;;;23.03;40.27;99949.44;4348264;33;34228;-68
2023/05/01 05:06:25;;;;;;;9.32;2.60;;;;;;;23.03;40.30;99954.87;4348070;33;34601;-69
2023/05/01 05:08:53;;;;;;;6.93;2.30;;;;;;;23.03;40.35;99957.59;4348014;33;34925;-69
2023/05/01 05:11:20;;;;;;;5.95;2.65;;;;;;;23.03;40.32;99952.16;4347867;33;34763;-65
2023/05/01 05:13:48;;;;;;;7.60;2.60;;;;;;;23.01;40.31;99952.41;4348009;33;33870;-67
2023/05/01 05:16:16;;;;;;;9.32;2.60;;;;;;;23.02;40.32;99950.50;4347933;33;33356;-67
2023/05/01 05:18:44;;;;;;;8.30;2.97;;;;;;;23.01;40.33;99957.84;4348077;33;34827;-63
2023/05/01 05:21:11;;;;;;;5.80;2.37;;;;;;;23.01;40.29;99955.13;4348157;33;34038;-69
2023/05/01 05:23:40;;;;;;;7.90;2.70;;;;;;;23.02;40.28;99956.78;4347947;33;34958;-67
2023/05/01 05:26:07;;;;;;;8.55;2.45;;;;;;;23.04;40.22;99957.41;4347811;33;34289;-65
2023/05/01 05:28:35;;;;;;;7.65;2.55;;;;;;;23.04;40.17;99960.12;4347709;33;33507;-67
2023/05/01 05:31:03;;;;;;;6.62;2.30;;;;;;;23.04;40.21;99960.12;4347995;33;34691;-67
2023/05/01 05:33:31;;;;;;;6.90;2.53;;;;;;;23.04;40.18;99956.56;4341663;33;212835;-68
2023/05/01 05:35:59;;;;;;;5.93;2.30;;;;;;;23.04;40.15;99960.12;4347992;33;34413;-63
2023/05/01 05:38:27;;;;;;;5.78;2.22;;;;;;;23.05;40.12;99959.06;4347914;33;33747;-66
2023/05/01 05:40:55;;;;;;;5.68;2.70;;;;;;;23.06;40.12;99968.06;4347945;33;33926;-70
2023/05/01 05:43:23;;;;;;;6.10;2.62;;;;;;;23.05;40.07;99967.22;4347876;33;34246;-68
2023/05/01 05:45:56;;;;;;;8.35;2.75;;;;;;;23.05;40.12;99964.50;4347934;33;33477;-69
2023/05/01 05:48:24;;;;;;;8.70;2.90;;;;;;;23.05;40.17;99972.69;4347768;33;34221;-69
2023/05/01 05:50:51;;;;;;;5.90;2.00;;;;;;;23.06;40.19;99977.06;4347515;33;34199;-62
2023/05/01 05:53:19;;;;;;;7.07;2.67;;;;;;;23.06;40.17;99966.16;4334252;33;34279;-62
2023/05/01 05:55:48;;;;;;;5.37;2.87;;;;;;;23.06;40.12;99968.88;4347848;33;34102;-66
2023/05/01 05:58:18;;;;;;;5.80;2.65;;;;;;;23.06;40.11;99970.78;4333783;33;33659;-60
2023/05/01 06:00:47;;;;;;;7.80;2.80;;;;;;;23.06;40.15;99971.63;4347484;33;34961;-64
2023/05/01 06:03:15;;;;;;;6.57;2.85;;;;;;;23.06;40.13;99976.22;4347965;33;34364;-65
2023/05/01 06:05:43;;;;;;;5.45;2.70;;;;;;;23.07;40.07;99977.87;4334312;33;33958;-65
2023/05/01 06:08:12;;;;;;;7.65;2.80;;;;;;;23.06;40.03;99982.50;4347480;33;34718;-62
2023/05/01 06:10:41;;;;;;;5.85;2.53;;;;;;;23.06;40.08;99982.50;4347744;33;34179;-63
2023/05/01 06:13:10;;;;;;;6.47;2.75;;;;;;;23.07;40.05;99984.16;4347148;33;34128;-66
2023/05/01 06:15:42;;;;;;;6.35;2.80;;;;;;;23.06;40.10;99985.22;4347214;33;33497;-64
2023/05/01 06:18:10;;;;;;;7.93;3.42;;;;;;;23.06;40.17;99978.94;4346763;32;33724;-67
2023/05/01 06:20:38;;;;;;;7.40;3.28;;;;;;;23.07;40.24;99983.34;4338426;32;35026;-69
2023/05/01 06:23:07;;;;;;;8.23;3.05;;;;;;;23.07;40.23;99983.34;4335255;32;34251;-63
2023/05/01 06:25:37;;;;;;;7.90;2.95;;;;;;;23.07;40.26;99986.06;4347197;33;34387;-63
2023/05/01 06:28:04;;;;;;;8.05;3.15;;;;;;;23.08;40.34;99994.03;4347355;33;34011;-67
2023/05/01 06:30:32;;;;;;;8.18;2.87;;;;;;;23.07;40.38;99992.31;4347622;33;34793;-63
2023/05/01 06:33:01;;;;;;;7.60;3.30;;;;;;;23.08;40.38;99993.16;4347471;33;34561;-67
2023/05/01 06:35:28;;;;;;;24.67;8.05;;;;;;;23.07;40.42;99995.03;4347478;33;34092;-64
2023/05/01 06:37:56;;;;;;;32.53;10.80;;;;;;;23.07;40.48;99992.31;4347248;33;33892;-65
2023/05/01 06:40:23;;;;;;;51.63;16.15;;;;;;;23.09;40.50;99992.97;4333815;33;33414;-64
2023/05/01 06:42:51;;;;;;;69.03;21.42;;;;;;;23.09;40.58;99994.84;4347493;33;34175;-63
2023/05/01 06:45:22;;;;;;;60.65;20.20;;;;;;;23.09;40.70;99997.56;4347593;33;33574;-61
2023/05/01 06:47:49;;;;;;;58.58;19.20;;;;;;;23.13;40.27;99999.63;4347706;32;33917;-62
2023/05/01 06:50:17;;;;;;;42.20;15.15;;;;;;;23.18;40.24;99998.97;4348482;32;33577;-61
2023/05/01 06:52:45;;;;;;;41.97;16.17;;;;;;;23.19;39.57;99988.91;4361992;32;34972;-62
2023/05/01 06:55:12;;;;;;;47.85;17.55;;;;;;;23.17;39.77;99997.28;4362071;32;34708;-60
2023/05/01 06:57:41;;;;;;;54.10;18.33;;;;;;;23.18;39.77;99996.25;4361933;32;34016;-63
2023/05/01 07:00:10;;;;;;;53.17;18.77;;;;;;;23.19;39.92;99999.81;4362112;32;34920;-61
2023/05/01 07:02:37;;;;;;;58.85;20.35;;;;;;;23.20;40.00;99998.75;4349086;32;34045;-63
2023/05/01 07:05:05;;;;;;;64.40;19.92;;;;;;;23.21;40.13;99987.63;4347048;33;33720;-61
2023/05/01 07:07:33;;;;;;;38.78;13.68;;;;;;;23.21;40.07;99995.78;4354171;32;35149;-61
2023/05/01 07:10:01;;;;;;;48.30;16.87;;;;;;;23.22;39.49;99991.19;4360332;32;34860;-63
2023/05/01 07:12:28;;;;;;;55.88;18.40;;;;;;;23.21;39.44;99989.53;4361973;32;33339;-63
2023/05/01 07:14:56;;;;;;;55.55;19.45;;;;;;;23.22;39.88;99997.47;4361564;32;33773;-63
2023/05/01 07:17:25;;;;;;;50.20;18.27;;;;;;;23.22;40.07;99993.91;4361866;32;33708;-64
2023/05/01 07:19:52;;;;;;;49.88;15.85;;;;;;;23.23;39.90;99998.31;4361928;32;33812;-65
2023/05/01 07:22:20;;;;;;;36.80;13.45;;;;;;;23.23;39.42;99998.31;4361084;32;34595;-62
2023/05/01 07:24:47;;;;;;;34.10;11.90;;;;;;;23.22;39.01;99988.47;4361720;32;33518;-61
2023/05/01 07:27:16;;;;;;;28.10;10.52;;;;;;;23.20;37.41;99994.13;4361639;32;33814;-62
2023/05/01 07:29:43;;;;;;;27.48;9.60;;;;;;;23.17;36.64;99997.28;4358600;32;34016;-61
2023/05/01 07:32:11;;;;;;;25.15;8.18;;;;;;;23.15;36.34;99997.50;4361199;32;34758;-62
2023/05/01 07:34:38;;;;;;;24.40;7.85;;;;;;;23.13;36.08;99988.75;4360877;32;34200;-63
2023/05/01 07:37:06;;;;;;;17.83;7.03;;;;;;;23.11;35.68;99995.44;4359563;32;33954;-64
2023/05/01 07:39:34;;;;;;;17.25;5.70;;;;;;;23.08;35.59;99996.75;4360737;32;33930;-66
2023/05/01 07:42:01;;;;;;;18.12;6.70;;;;;;;23.07;34.93;100000.50;4360014;32;34187;-61
2023/05/01 07:44:29;;;;;;;20.20;6.85;;;;;;;23.06;35.40;100008.88;4359097;32;34036;-62
2023/05/01 07:47:02;;;;;;;17.98;6.50;;;;;;;23.05;35.66;100001.78;4360827;32;33990;-63
2023/05/01 07:49:35;;;;;;;18.95;6.55;;;;;;;23.05;36.10;100007.22;4359508;32;34919;-63
2023/05/01 07:52:04;;;;;;;19.58;7.47;;;;;;;23.05;35.92;100008.06;4360696;32;34028;-63
2023/05/01 07:54:32;;;;;;;24.20;6.82;;;;;;;23.05;36.30;99996.34;4361034;32;33926;-62
2023/05/01 07:57:00;;;;;;;18.10;5.80;;;;;;;23.04;35.77;100008.28;4360737;32;34145;-60
2023/05/01 07:59:28;;;;;;;15.60;6.25;;;;;;;23.04;35.87;100000.94;4358689;32;34032;-61
2023/05/01 08:01:56;;;;;;;16.58;5.95;;;;;;;23.04;35.91;100003.66;4360912;32;34402;-60
2023/05/01 08:04:25;;;;;;;18.35;5.62;;;;;;;23.03;35.87;100009.31;4360864;32;34643;-59
2023/05/01 08:06:53;;;;;;;16.23;5.03;;;;;;;23.03;35.71;100007.41;4346585;33;35191;-60
2023/05/01 08:09:20;;;;;;;21.50;6.28;;;;;;;23.03;35.71;100001.97;4356990;32;34938;-62
2023/05/01 08:11:49;;;;;;;15.73;5.87;;;;;;;23.03;35.61;100007.41;4360679;32;34237;-61
2023/05/01 08:14:17;;;;;;;14.45;5.07;;;;;;;23.03;35.62;100006.59;4361647;32;33706;-61
2023/05/01 08:16:44;;;;;;;13.88;5.80;;;;;;;23.02;35.68;100002.22;4361027;32;34008;-61
2023/05/01 08:19:12;;;;;;;19.35;5.97;;;;;;;23.01;35.77;100003.28;4360522;32;33434;-61
2023/05/01 08:21:39;;;;;;;13.45;4.85;;;;;;;23.01;35.60;100004.09;4361094;32;34443;-60
2023/05/01 08:24:08;;;;;;;12.45;4.68;;;;;;;23.00;35.38;100010.59;4362230;32;33577;-61
2023/05/01 08:26:36;;;;;;;10.65;4.40;;;;;;;23.00;35.31;100010.59;4362266;32;34145;-60
2023/05/01 08:29:03;;;;;;;10.80;3.97;;;;;;;22.99;35.02;100013.53;4360950;32;35430;-61
2023/05/01 08:31:31;;;;;;;13.15;4.10;;;;;;;22.98;34.80;100009.97;4362300;32;33979;-61
2023/05/01 08:33:58;;;;;;;11.60;3.60;;;;;;;22.98;34.56;100011.84;4363109;32;34156;-61
2023/05/01 08:36:26;;;;;;;11.25;3.78;;;;;;;22.97;34.30;100007.47;4362211;32;33513;-61
2023/05/01 08:38:54;;;;;;;10.60;3.80;;;;;;;22.95;33.65;100004.97;4362847;32;34393;-62
2023/05/01 08:41:22;;;;;;;8.45;3.62;;;;;;;22.94;33.80;100006.00;4362116;32;34937;-61
2023/05/01 08:43:52;;;;;;;10.38;3.80;;;;;;;22.93;34.12;99996.19;4349054;32;33751;-61
2023/05/01 08:46:35;;;;;;;9.90;3.65;;;;;;;22.93;34.25;99996.19;4363007;32;34240;-61
2023/05/01 08:49:04;;;;;;;9.02;3.50;;;;;;;22.93;34.24;99998.91;4323852;33;34169;-61
2023/05/01 08:51:32;;;;;;;11.85;4.35;;;;;;;22.94;34.26;100002.47;4348090;32;34272;-61
2023/05/01 08:54:00;;;;;;;8.55;3.62;;;;;;;22.92;34.35;100002.69;4348084;33;33770;-61
2023/05/01 08:56:28;;;;;;;8.15;3.30;;;;;;;22.91;34.48;99999.13;4347628;32;33673;-60
2023/05/01 08:58:57;;;;;;;8.23;3.10;;;;;;;22.91;34.49;100001.84;4333972;33;34092;-59
2023/05/01 09:01:25;;;;;;;10.75;3.80;;;;;;;22.92;34.48;100008.97;4334199;32;33726;-61
2023/05/01 09:03:52;;;;;;;7.20;3.17;;;;;;;22.91;34.34;100003.75;4337359;32;34618;-61
2023/05/01 09:06:20;;;;;;;8.70;2.95;;;;;;;22.90;34.34;100011.06;4348651;32;33869;-56
2023/05/01 09:08:48;;;;;;;9.20;3.08;;;;;;;22.90;34.12;100002.09;4347937;33;34563;-61
2023/05/01 09:11:15;;;;;;;8.15;3.15;;;;;;;22.90;34.36;100004.81;4347866;33;34270;-61
2023/05/01 09:13:43;;;;;;;9.15;3.42;;;;;;;22.91;34.13;100001.03;4336821;32;32127;-61
2023/05/01 09:16:10;;;;;;;7.62;3.35;;;;;;;22.90;34.22;99999.38;4348436;32;34926;-59
2023/05/01 09:18:40;;;;;;;5.25;2.85;;;;;;;22.90;33.98;99994.75;4349232;32;34886;-61
2023/05/01 09:21:07;;;;;;;7.43;3.30;;;;;;;22.88;33.88;99987.81;4359625;32;34223;-61
2023/05/01 09:23:36;;;;;;;6.75;3.10;;;;;;;22.88;33.81;99988.66;4354737;32;33816;-59
2023/05/01 09:26:04;;;;;;;6.50;3.57;;;;;;;22.90;33.98;99999.38;4360882;32;34811;-60
2023/05/01 09:28:43;;;;;;;10.20;2.97;;;;;;;22.90;34.18;99996.66;4359877;32;34782;-60
2023/05/01 09:31:31;;;;;;;6.77;2.90;;;;;;;22.90;34.20;99996.66;4348038;33;34264;-60
2023/05/01 09:34:02;;;;;;;7.43;3.00;;;;;;;22.92;34.12;99999.97;4346814;33;34535;-61
2023/05/01 09:36:31;;;;;;;6.10;2.60;;;;;;;22.89;34.20;99993.06;4336079;32;34019;-60
2023/05/01 09:38:59;;;;;;;6.25;2.90;;;;;;;22.88;34.08;99985.09;4362522;32;34171;-61
2023/05/01 09:41:27;;;;;;;5.40;2.58;;;;;;;22.89;34.05;99994.94;4362016;32;34438;-60
2023/05/01 09:43:55;;;;;;;8.25;3.25;;;;;;;22.88;34.08;99987.81;4362536;32;34579;-60
2023/05/01 09:46:23;;;;;;;5.90;2.60;;;;;;;22.88;34.04;99980.47;4361544;32;34110;-60
2023/05/01 09:48:57;;;;;;;6.85;2.92;;;;;;;22.88;34.03;99985.09;4347904;32;33998;-61
2023/05/01 09:51:31;;;;;;;6.75;2.70;;;;;;;22.90;34.21;99983.03;4361102;32;34364;-56
2023/05/01 09:54:00;;;;;;;5.68;2.67;;;;;;;22.88;34.32;99985.94;4347676;33;33726;-60
2023/05/01 09:56:30;;;;;;;5.90;2.95;;;;;;;22.88;34.03;99985.94;4347508;32;34727;-57
2023/05/01 09:59:12;;;;;;;6.75;3.17;;;;;;;22.87;33.97;99978.81;4361451;32;33792;-61
2023/05/01 10:01:42;;;;;;;5.80;2.45;;;;;;;22.89;33.80;99973.19;4360607;32;34064;-61
2023/05/01 10:04:10;;;;;;;6.25;2.40;;;;;;;22.88;33.57;99972.31;4362317;32;33817;-60
2023/05/01 10:06:38;;;;;;;4.53;2.50;;;;;;;22.88;33.46;99972.31;4361567;32;34105;-61
2023/05/01 10:09:09;;;;;;;6.65;2.45;;;;;;;22.88;33.59;99966.88;4362318;32;34354;-60
2023/05/01 10:11:56;;;;;;;4.82;2.28;;;;;;;22.88;33.93;99964.16;4348937;32;34911;-61
2023/05/01 10:14:25;;;;;;;5.68;2.40;;;;;;;22.90;33.93;99964.00;4361387;32;33255;-61
2023/05/01 10:16:55;;;;;;;5.43;2.62;;;;;;;22.89;33.92;99954.13;4362025;32;33980;-60
2023/05/01 10:19:23;;;;;;;6.18;2.40;;;;;;;22.89;33.52;99948.69;4362361;32;33574;-59
2023/05/01 10:21:51;;;;;;;4.87;2.22;;;;;;;22.89;33.36;99956.84;4362225;32;33999;-60
2023/05/01 10:24:19;;;;;;;6.43;2.45;;;;;;;22.88;33.54;99947.84;4362045;32;33474;-59
2023/05/01 10:26:49;;;;;;;6.87;2.90;;;;;;;22.87;33.68;99942.63;4348544;32;33959;-59
2023/05/01 10:29:18;;;;;;;5.78;2.30;;;;;;;22.86;33.61;99943.69;4336605;32;34037;-59
2023/05/01 10:31:46;;;;;;;4.73;2.43;;;;;;;22.85;33.43;99940.13;4336813;32;34265;-59
2023/05/01 10:34:15;;;;;;;6.07;2.03;;;;;;;22.87;33.29;99939.91;4355636;32;33675;-61
2023/05/01 10:36:57;;;;;;;5.73;2.43;;;;;;;22.87;33.28;99939.91;4339923;33;33694;-59
2023/05/01 10:39:30;;;;;;;6.70;2.33;;;;;;;22.87;33.49;99942.63;4331373;32;33801;-58
2023/05/01 10:42:03;;;;;;;4.95;2.40;;;;;;;22.86;33.65;99939.06;4360557;32;34232;-62
2023/05/01 10:44:31;;;;;;;6.57;1.87;;;;;;;22.86;33.71;99935.53;4361145;32;33822;-62
2023/05/01 10:46:58;;;;;;;6.12;2.10;;;;;;;22.86;33.68;99932.81;4361921;32;34828;-60
2023/05/01 10:50:03;;;;;;;5.60;2.25;;;;;;;22.87;33.77;99937.19;4360298;32;34033;-61
2023/05/01 10:52:53;;;;;;;6.32;2.50;;;;;;;22.89;33.81;99929.66;4336577;32;35065;-56
2023/05/01 10:55:37;;;;;;;4.43;1.90;;;;;;;22.88;33.89;99936.94;4350979;32;33825;-61
2023/05/01 10:58:05;;;;;;;5.12;2.20;;;;;;;22.88;34.00;99930.69;4360424;32;34112;-61
2023/05/01 11:00:33;;;;;;;6.45;2.42;;;;;;;22.87;34.01;99932.56;4360685;32;34870;-62
2023/05/01 11:03:22;;;;;;;6.07;2.33;;;;;;;22.86;34.06;99932.81;4348507;32;34897;-62
2023/05/01 11:05:59;;;;;;;4.50;2.30;;;;;;;22.88;34.06;99917.91;4362047;32;33718;-62
2023/05/01 11:08:31;;;;;;;4.18;2.22;;;;;;;22.88;34.10;99930.69;4361073;32;34747;-61
2023/05/01 11:11:20;;;;;;;7.62;2.40;;;;;;;22.87;34.02;99934.47;4361886;32;33876;-63
2023/05/01 11:14:00;;;;;;;8.67;2.70;;;;;;;22.90;34.05;99923.19;4362020;32;33997;-62
2023/05/01 11:16:40;;;;;;;;;;;;;;;22.90;34.13;99926.72;4362146;32;33527;-62
2023/05/01 11:19:11;;;;;;;6.12;2.40;;;;;;;22.98;34.25;99913.91;4362069;32;33686;-62
2023/05/01 11:21:40;;;;;;;6.85;2.25;;;;;;;22.91;34.33;99913.97;4361864;32;33691;-62
2023/05/01 11:24:08;;;;;;;5.55;2.17;;;;;;;22.88;34.41;99908.91;4361963;32;35258;-62
2023/05/01 11:26:39;;;;;;;6.05;2.22;;;;;;;22.89;34.35;99910.59;4361437;32;34482;-60
2023/05/01 11:29:09;;;;;;;6.57;2.20;;;;;;;22.89;34.34;99910.59;4361797;32;34013;-62
2023/05/01 11:31:37;;;;;;;7.62;2.65;;;;;;;22.88;34.33;99900.75;4361894;32;34820;-61
2023/05/01 11:34:05;;;;;;;5.45;2.10;;;;;;;22.89;34.34;99902.44;4361661;32;35066;-62
2023/05/01 11:36:49;;;;;;;7.15;2.33;;;;;;;22.88;34.31;99892.59;4361860;32;33701;-60
2023/05/01 11:39:17;;;;;;;5.93;2.22;;;;;;;22.91;34.26;99898.47;4361586;32;33956;-60
2023/05/01 11:41:45;;;;;;;6.55;2.20;;;;;;;22.89;34.18;99888.84;4361695;32;34900;-62
2023/05/01 11:44:16;;;;;;;7.00;2.08;;;;;;;22.88;34.26;99892.59;4361811;32;33629;-62